Carney, Michigan
Current Conditions -  °F | °C
As of 11:15 AM on Thursday 30 Oct 2014 (Local Time) from KESC Reporting Station
Overcast Overcast  
Wind Chill: 40°   Ceiling: 3100
Heat Index: 45°   Visibility: 10mi
Dew Point: 30°   Wind: 9mph
Humidity: 57%   Direction: 260°W
Pressure: 30.03"   Gusts: NA
Location:  45.59°N, 87.56°W
Report Text: KESC 301615Z AUTO 26008KT 10SM OVC031 07/M01 A3003 RMK AO1
Loading
Personal Weather Stations






























Interactive Weather Map
Tropical Storm Tracking
New forecast layout! Learn more

10-Day Weather Forecast

Advertisements
Track Severe Weather on mobile